createdAt,value
2023-05-25T00:01:04.856Z,4.82
2023-05-25T00:03:32.682Z,4.78
2023-05-25T00:06:03.974Z,4.95
2023-05-25T00:08:31.066Z,4.93
2023-05-25T00:10:58.453Z,4.90
2023-05-25T00:13:25.902Z,5.15
2023-05-25T00:15:52.993Z,4.93
2023-05-25T00:18:20.017Z,5.50
2023-05-25T00:20:47.681Z,5.20
2023-05-25T00:23:15.061Z,5.55
2023-05-25T00:25:42.581Z,5.40
2023-05-25T00:28:12.113Z,5.45
2023-05-25T00:30:39.386Z,5.70
2023-05-25T00:33:06.838Z,6.30
2023-05-25T00:35:33.836Z,6.05
2023-05-25T00:38:01.046Z,6.40
2023-05-25T00:40:28.065Z,5.82
2023-05-25T00:42:57.850Z,6.00
2023-05-25T00:45:24.988Z,6.60
2023-05-25T00:47:52.724Z,5.95
2023-05-25T00:50:42.334Z,6.22
2023-05-25T00:53:12.803Z,5.28
2023-05-25T00:56:23.004Z,6.03
2023-05-25T00:58:57.091Z,6.45
2023-05-25T01:01:26.364Z,5.53
2023-05-25T01:03:55.741Z,5.25
2023-05-25T01:06:23.714Z,5.13
2023-05-25T01:08:56.906Z,5.30
2023-05-25T01:11:32.607Z,5.57
2023-05-25T01:13:59.937Z,5.93
2023-05-25T01:16:27.243Z,5.25
2023-05-25T01:18:54.897Z,5.15
2023-05-25T01:21:42.987Z,5.20
2023-05-25T01:24:44.754Z,5.15
2023-05-25T01:27:47.221Z,5.72
2023-05-25T01:30:17.157Z,4.15
2023-05-25T01:32:45.921Z,4.35
2023-05-25T01:35:14.631Z,4.38
2023-05-25T01:37:49.880Z,5.40
2023-05-25T01:40:16.878Z,4.65
2023-05-25T01:42:44.215Z,3.85
2023-05-25T01:45:13.791Z,4.35
2023-05-25T01:48:16.412Z,4.90
2023-05-25T01:51:05.418Z,4.07
2023-05-25T01:53:48.488Z,4.90
2023-05-25T01:56:17.222Z,4.20
2023-05-25T01:58:47.585Z,3.75
2023-05-25T02:01:16.120Z,4.35
2023-05-25T02:03:44.999Z,4.32
2023-05-25T02:06:12.282Z,4.63
2023-05-25T02:08:39.328Z,4.93
2023-05-25T02:11:06.517Z,4.53
2023-05-25T02:13:33.468Z,4.20
2023-05-25T02:16:01.023Z,4.28
2023-05-25T02:18:28.382Z,4.38
2023-05-25T02:20:55.532Z,4.82
2023-05-25T02:23:22.494Z,4.80
2023-05-25T02:25:51.644Z,4.18
2023-05-25T02:28:19.106Z,4.40
2023-05-25T02:30:46.111Z,3.78
2023-05-25T02:33:13.895Z,3.90
2023-05-25T02:35:41.826Z,3.97
2023-05-25T02:38:10.517Z,4.72
2023-05-25T02:40:37.547Z,4.40
2023-05-25T02:43:04.685Z,4.68
2023-05-25T02:45:31.832Z,4.88
2023-05-25T02:47:58.970Z,4.70
2023-05-25T02:50:26.240Z,5.13
2023-05-25T02:52:56.510Z,4.78
2023-05-25T02:55:25.996Z,4.75
2023-05-25T02:57:53.672Z,4.43
2023-05-25T03:00:39.456Z,4.78
2023-05-25T03:03:06.733Z,3.85
2023-05-25T03:05:35.326Z,4.55
2023-05-25T03:08:02.973Z,4.72
2023-05-25T03:10:31.200Z,4.75
2023-05-25T03:12:58.434Z,4.13
2023-05-25T03:15:25.853Z,4.93
2023-05-25T03:17:53.899Z,4.88
2023-05-25T03:20:24.569Z,4.70
2023-05-25T03:22:55.033Z,4.78
2023-05-25T03:25:22.382Z,5.28
2023-05-25T03:27:56.594Z,4.53
2023-05-25T03:30:23.963Z,4.90
2023-05-25T03:32:51.376Z,5.13
2023-05-25T03:35:18.759Z,5.28
2023-05-25T03:37:46.069Z,4.25
2023-05-25T03:40:13.308Z,5.40
2023-05-25T03:42:40.917Z,5.45
2023-05-25T03:45:09.351Z,5.40
2023-05-25T03:47:37.684Z,4.65
2023-05-25T03:50:07.108Z,5.45
2023-05-25T03:52:34.370Z,4.82
2023-05-25T03:55:04.632Z,5.43
2023-05-25T03:57:31.794Z,5.63
2023-05-25T03:59:59.520Z,6.40
2023-05-25T04:02:26.883Z,6.38
2023-05-25T04:04:57.120Z,6.88
2023-05-25T04:07:27.426Z,6.43
2023-05-25T04:09:54.656Z,6.40
2023-05-25T04:12:22.539Z,5.85
2023-05-25T04:14:49.784Z,6.30
2023-05-25T04:17:19.037Z,5.55
2023-05-25T04:19:46.483Z,6.68
2023-05-25T04:22:13.528Z,6.95
2023-05-25T04:24:41.811Z,6.60
2023-05-25T04:27:09.282Z,6.32
2023-05-25T04:29:38.240Z,6.18
2023-05-25T04:32:23.913Z,6.03
2023-05-25T04:35:07.102Z,5.35
2023-05-25T04:37:41.643Z,6.60
2023-05-25T04:40:11.668Z,6.55
2023-05-25T04:42:39.827Z,7.50
2023-05-25T04:45:11.965Z,6.07
2023-05-25T04:47:41.159Z,6.53
2023-05-25T04:50:11.071Z,6.40
2023-05-25T04:52:38.506Z,6.53
2023-05-25T04:55:06.429Z,6.18
2023-05-25T04:57:36.493Z,5.78
2023-05-25T05:00:04.943Z,6.22
2023-05-25T05:02:32.395Z,5.38
2023-05-25T05:04:59.795Z,6.50
2023-05-25T05:07:26.951Z,6.22
2023-05-25T05:09:54.637Z,7.10
2023-05-25T05:12:21.795Z,7.15
2023-05-25T05:14:51.693Z,7.05
2023-05-25T05:17:19.602Z,7.05
2023-05-25T05:19:46.657Z,6.60
2023-05-25T05:22:16.153Z,6.45
2023-05-25T05:24:45.293Z,5.93
2023-05-25T05:27:17.176Z,6.80
2023-05-25T05:29:47.898Z,6.53
2023-05-25T05:32:15.762Z,6.07
2023-05-25T05:34:42.832Z,6.63
2023-05-25T05:37:21.354Z,6.35
2023-05-25T05:39:48.511Z,10.55
2023-05-25T05:42:15.699Z,7.80
2023-05-25T05:44:42.722Z,6.75
2023-05-25T05:47:09.862Z,6.45
2023-05-25T05:49:39.244Z,6.60
2023-05-25T05:52:09.177Z,6.50
2023-05-25T05:54:36.466Z,6.10
2023-05-25T05:57:08.790Z,6.68
2023-05-25T05:59:35.966Z,6.85
2023-05-25T06:02:03.154Z,6.32
2023-05-25T06:04:30.756Z,5.93
2023-05-25T06:06:59.094Z,5.38
2023-05-25T06:09:26.546Z,6.30
2023-05-25T06:11:56.036Z,5.90
2023-05-25T06:14:23.092Z,6.15
2023-05-25T06:16:51.184Z,5.88
2023-05-25T06:19:18.287Z,5.78
2023-05-25T06:21:45.406Z,5.22
2023-05-25T06:24:12.399Z,5.53
2023-05-25T06:26:39.429Z,4.65
2023-05-25T06:29:06.890Z,4.70
2023-05-25T06:31:33.957Z,5.55
2023-05-25T06:34:01.302Z,4.45
2023-05-25T06:36:28.500Z,4.72
2023-05-25T06:38:55.819Z,4.55
2023-05-25T06:41:23.081Z,4.22
2023-05-25T06:43:50.121Z,5.28
2023-05-25T06:46:30.076Z,4.43
2023-05-25T06:49:00.834Z,5.28
2023-05-25T06:51:28.076Z,4.45
2023-05-25T06:53:58.255Z,4.47
2023-05-25T06:56:25.205Z,4.45
2023-05-25T06:58:52.216Z,4.18
2023-05-25T07:01:19.326Z,4.50
2023-05-25T07:03:46.535Z,3.92
2023-05-25T07:06:13.516Z,4.10
2023-05-25T07:08:40.583Z,4.00
2023-05-25T07:11:10.579Z,3.83
2023-05-25T07:13:37.778Z,3.88
2023-05-25T07:16:05.011Z,4.00
2023-05-25T07:18:32.146Z,3.80
2023-05-25T07:20:59.422Z,3.80
2023-05-25T07:23:26.446Z,3.88
2023-05-25T07:25:54.658Z,3.70
2023-05-25T07:28:21.670Z,4.32
2023-05-25T07:30:48.742Z,3.97
2023-05-25T07:33:15.799Z,4.50
2023-05-25T07:35:42.914Z,3.90
2023-05-25T07:38:10.584Z,4.25
2023-05-25T07:40:37.846Z,4.65
2023-05-25T07:43:08.509Z,4.18
2023-05-25T07:45:35.792Z,3.72
2023-05-25T07:48:02.984Z,3.60
2023-05-25T07:50:31.854Z,3.38
2023-05-25T07:53:00.377Z,3.78
2023-05-25T07:55:27.697Z,3.20
2023-05-25T07:57:55.017Z,3.75
2023-05-25T08:00:22.363Z,3.45
2023-05-25T08:02:49.991Z,3.55
2023-05-25T08:05:17.437Z,3.35
2023-05-25T08:07:46.637Z,3.03
2023-05-25T08:10:13.874Z,3.00
2023-05-25T08:12:48.415Z,3.33
2023-05-25T08:15:16.885Z,2.75
2023-05-25T08:17:44.429Z,3.10
2023-05-25T08:20:12.368Z,3.47
2023-05-25T08:22:39.344Z,3.28
2023-05-25T08:25:06.866Z,2.90
2023-05-25T08:27:35.696Z,3.00
2023-05-25T08:30:08.049Z,3.15
2023-05-25T08:32:35.045Z,3.38
2023-05-25T08:35:04.575Z,2.78
2023-05-25T08:37:35.682Z,2.88
2023-05-25T08:40:03.156Z,2.63
2023-05-25T08:42:30.431Z,3.45
2023-05-25T08:44:58.798Z,2.90
2023-05-25T08:47:32.657Z,3.33
2023-05-25T08:50:02.354Z,3.50
2023-05-25T08:52:33.333Z,3.50
2023-05-25T08:55:05.943Z,3.33
2023-05-25T08:57:45.029Z,3.17
2023-05-25T09:00:15.909Z,3.72
2023-05-25T09:03:03.188Z,3.72
2023-05-25T09:05:30.510Z,3.13
2023-05-25T09:07:58.649Z,3.80
2023-05-25T09:10:27.822Z,3.20
2023-05-25T09:12:55.824Z,3.47
2023-05-25T09:15:22.824Z,2.92
2023-05-25T09:17:49.939Z,3.47
2023-05-25T09:20:19.012Z,2.90
2023-05-25T09:22:48.063Z,3.00
2023-05-25T09:25:22.440Z,3.55
2023-05-25T09:27:50.040Z,3.78
2023-05-25T09:30:17.263Z,3.70
2023-05-25T09:32:44.550Z,3.97
2023-05-25T09:35:14.315Z,3.17
2023-05-25T09:37:45.182Z,3.70
2023-05-25T09:40:13.102Z,3.63
2023-05-25T09:42:42.321Z,3.03
2023-05-25T09:45:09.958Z,3.53
2023-05-25T09:47:38.419Z,3.75
2023-05-25T09:50:06.351Z,3.88
2023-05-25T09:52:33.356Z,3.53
2023-05-25T09:55:02.562Z,3.35
2023-05-25T09:57:29.613Z,3.67
2023-05-25T09:59:57.101Z,3.25
2023-05-25T10:02:24.270Z,3.25
2023-05-25T10:04:51.478Z,3.60
2023-05-25T10:07:19.734Z,3.60
2023-05-25T10:09:47.784Z,4.32
2023-05-25T10:12:20.823Z,3.50
2023-05-25T10:14:51.468Z,3.65
2023-05-25T10:17:24.115Z,3.33
2023-05-25T10:19:59.481Z,3.45
2023-05-25T10:22:41.096Z,3.63
2023-05-25T10:25:26.847Z,4.13
2023-05-25T10:28:05.479Z,3.20
2023-05-25T10:30:33.484Z,3.47
2023-05-25T10:33:02.480Z,3.67
2023-05-25T10:35:32.829Z,3.70
2023-05-25T10:38:06.447Z,3.70
2023-05-25T10:40:34.926Z,3.97
2023-05-25T10:43:02.955Z,4.28
2023-05-25T10:45:29.992Z,3.45
2023-05-25T10:47:58.069Z,3.83
2023-05-25T10:50:27.319Z,3.28
2023-05-25T10:53:05.875Z,3.42
2023-05-25T10:55:51.915Z,3.15
2023-05-25T11:01:09.503Z,3.05
2023-05-25T11:03:56.527Z,3.05
2023-05-25T11:06:46.650Z,3.40
2023-05-25T11:09:27.692Z,3.25
2023-05-25T11:12:01.962Z,3.72
2023-05-25T11:14:33.016Z,3.55
2023-05-25T11:17:12.117Z,3.78
2023-05-25T11:19:50.656Z,3.88
2023-05-25T11:22:23.799Z,3.30
2023-05-25T11:24:53.150Z,3.38
2023-05-25T11:27:29.768Z,3.72
2023-05-25T11:29:59.576Z,3.38
2023-05-25T11:32:28.561Z,3.58
2023-05-25T11:34:58.242Z,3.30
2023-05-25T11:37:31.264Z,3.17
2023-05-25T11:39:58.821Z,3.50
2023-05-25T11:42:26.645Z,3.42
2023-05-25T11:44:53.777Z,3.08
2023-05-25T11:47:25.390Z,3.28
2023-05-25T11:49:55.512Z,3.17
2023-05-25T11:52:23.216Z,3.58
2023-05-25T11:54:50.416Z,3.30
2023-05-25T11:57:24.854Z,3.28
2023-05-25T12:00:00.364Z,2.90
2023-05-25T12:02:27.637Z,3.28
2023-05-25T12:05:03.788Z,3.38
2023-05-25T12:07:32.019Z,3.13
2023-05-25T12:10:11.291Z,3.30
2023-05-25T12:12:50.819Z,3.47
2023-05-25T12:15:24.544Z,3.90
2023-05-25T12:17:54.003Z,3.70
2023-05-25T12:20:21.614Z,3.85
2023-05-25T12:22:49.212Z,4.25
2023-05-25T12:25:21.226Z,3.90
2023-05-25T12:27:48.484Z,3.53
2023-05-25T12:30:15.948Z,3.65
2023-05-25T12:33:05.074Z,3.05
2023-05-25T12:35:48.190Z,2.90
2023-05-25T12:38:18.592Z,3.05
2023-05-25T12:40:45.823Z,3.78
2023-05-25T12:43:14.360Z,3.50
2023-05-25T12:45:44.693Z,3.15
2023-05-25T12:48:12.101Z,2.78
2023-05-25T12:50:58.362Z,3.20
2023-05-25T12:53:27.224Z,3.15
2023-05-25T12:56:12.817Z,3.28
2023-05-25T12:58:40.904Z,3.78
2023-05-25T13:01:11.105Z,3.28
2023-05-25T13:03:38.130Z,3.90
2023-05-25T13:06:06.451Z,3.13
2023-05-25T13:08:33.373Z,3.50
2023-05-25T13:11:01.378Z,4.15
2023-05-25T13:13:28.491Z,3.05
2023-05-25T13:15:55.681Z,3.63
2023-05-25T13:18:22.846Z,4.15
2023-05-25T13:20:51.223Z,3.80
2023-05-25T13:23:20.601Z,4.22
2023-05-25T13:25:47.674Z,4.07
2023-05-25T13:28:14.671Z,3.65
2023-05-25T13:30:43.271Z,3.63
2023-05-25T13:33:10.879Z,3.53
2023-05-25T13:35:41.858Z,4.00
2023-05-25T13:38:10.472Z,3.38
2023-05-25T13:40:37.430Z,3.40
2023-05-25T13:43:04.504Z,3.17
2023-05-25T13:45:31.439Z,3.80
2023-05-25T13:47:58.927Z,3.30
2023-05-25T13:50:26.194Z,3.05
2023-05-25T13:52:53.150Z,3.67
2023-05-25T13:55:20.265Z,3.38
2023-05-25T13:57:47.372Z,3.70
2023-05-25T14:00:14.861Z,3.28
2023-05-25T14:02:41.874Z,3.50
2023-05-25T14:05:09.143Z,3.38
2023-05-25T14:07:36.205Z,2.95
2023-05-25T14:10:04.586Z,3.15
2023-05-25T14:12:32.246Z,3.38
2023-05-25T14:14:59.594Z,3.35
2023-05-25T14:17:26.878Z,3.25
2023-05-25T14:19:54.020Z,3.00
2023-05-25T14:22:21.013Z,3.15
2023-05-25T14:24:48.006Z,3.00
2023-05-25T14:27:16.109Z,2.92
2023-05-25T14:29:43.170Z,3.25
2023-05-25T14:32:10.499Z,3.33
2023-05-25T14:34:37.532Z,3.28
2023-05-25T14:37:04.678Z,4.07
2023-05-25T14:39:31.780Z,3.80
2023-05-25T14:41:59.073Z,3.78
2023-05-25T14:44:26.155Z,3.80
2023-05-25T14:46:53.202Z,3.40
2023-05-25T14:49:24.816Z,3.95
2023-05-25T14:51:52.162Z,3.80
2023-05-25T14:54:20.360Z,3.95
2023-05-25T14:56:48.059Z,4.03
2023-05-25T14:59:15.344Z,3.47
2023-05-25T15:01:42.317Z,3.70
2023-05-25T15:04:09.650Z,4.53
2023-05-25T15:06:39.107Z,3.40
2023-05-25T15:09:07.201Z,4.00
2023-05-25T15:11:34.382Z,3.20
2023-05-25T15:14:01.879Z,3.90
2023-05-25T15:16:28.998Z,4.28
2023-05-25T15:18:56.332Z,3.70
2023-05-25T15:21:23.404Z,4.47
2023-05-25T15:23:50.965Z,3.40
2023-05-25T15:26:17.922Z,3.60
2023-05-25T15:28:45.159Z,3.78
2023-05-25T15:31:12.328Z,4.28
2023-05-25T15:33:52.099Z,3.72
2023-05-25T15:36:23.710Z,4.10
2023-05-25T15:38:50.755Z,3.75
2023-05-25T15:41:17.952Z,3.92
2023-05-25T15:44:01.098Z,3.75
2023-05-25T15:46:28.545Z,3.78
2023-05-25T15:48:55.958Z,3.60
2023-05-25T15:51:23.052Z,3.85
2023-05-25T15:53:49.949Z,3.10
2023-05-25T15:56:17.181Z,4.28
2023-05-25T15:58:48.649Z,3.75
2023-05-25T16:01:15.726Z,3.95
2023-05-25T16:03:43.159Z,3.55
2023-05-25T16:06:11.078Z,3.17
2023-05-25T16:08:40.755Z,3.20
2023-05-25T16:11:08.032Z,4.22
2023-05-25T16:13:35.038Z,3.70
2023-05-25T16:16:03.461Z,3.83
2023-05-25T16:18:30.409Z,3.42
2023-05-25T16:20:57.855Z,3.83
2023-05-25T16:23:25.483Z,3.72
2023-05-25T16:25:52.607Z,3.50
2023-05-25T16:28:19.794Z,3.65
2023-05-25T16:30:47.260Z,3.58
2023-05-25T16:33:14.558Z,3.65
2023-05-25T16:35:41.553Z,3.30
2023-05-25T16:38:08.584Z,2.85
2023-05-25T16:40:36.059Z,3.58
2023-05-25T16:43:03.306Z,3.53
2023-05-25T16:45:30.367Z,3.22
2023-05-25T16:47:57.299Z,3.53
2023-05-25T16:50:24.538Z,3.38
2023-05-25T16:52:51.483Z,3.58
2023-05-25T16:55:18.688Z,3.33
2023-05-25T16:57:45.896Z,3.45
2023-05-25T17:00:14.114Z,3.42
2023-05-25T17:02:41.301Z,3.20
2023-05-25T17:05:09.126Z,3.42
2023-05-25T17:07:36.376Z,3.72
2023-05-25T17:10:03.951Z,3.25
2023-05-25T17:12:30.913Z,4.03
2023-05-25T17:14:57.773Z,3.90
2023-05-25T17:17:28.346Z,3.80
2023-05-25T17:20:08.458Z,4.03
2023-05-25T17:22:35.743Z,3.45
2023-05-25T17:25:03.533Z,4.20
2023-05-25T17:27:30.979Z,3.20
2023-05-25T17:29:58.105Z,3.97
2023-05-25T17:32:25.167Z,3.38
2023-05-25T17:34:52.270Z,3.90
2023-05-25T17:37:20.939Z,3.75
2023-05-25T17:40:18.562Z,3.55
2023-05-25T17:42:48.915Z,3.90
2023-05-25T17:45:16.915Z,4.25
2023-05-25T17:47:43.979Z,4.30
2023-05-25T17:50:11.384Z,4.82
2023-05-25T17:52:38.302Z,4.07
2023-05-25T17:55:07.011Z,3.70
2023-05-25T17:57:34.070Z,3.67
2023-05-25T18:00:01.790Z,3.58
2023-05-25T18:02:30.277Z,3.22
2023-05-25T18:04:57.477Z,3.72
2023-05-25T18:07:25.209Z,3.58
2023-05-25T18:09:52.229Z,3.33
2023-05-25T18:12:19.240Z,2.88
2023-05-25T18:14:46.333Z,4.05
2023-05-25T18:17:13.405Z,3.75
2023-05-25T18:19:40.553Z,3.10
2023-05-25T18:22:07.674Z,4.20
2023-05-25T18:24:34.819Z,3.50
2023-05-25T18:27:03.935Z,2.90
2023-05-25T18:29:31.359Z,3.10
2023-05-25T18:31:58.325Z,3.90
2023-05-25T18:34:25.574Z,3.30
2023-05-25T18:36:52.547Z,2.95
2023-05-25T18:39:19.476Z,3.75
2023-05-25T18:41:46.769Z,3.38
2023-05-25T18:44:13.842Z,3.78
2023-05-25T18:46:43.186Z,3.05
2023-05-25T18:49:10.809Z,2.78
2023-05-25T18:51:38.204Z,3.15
2023-05-25T18:54:05.413Z,2.97
2023-05-25T18:56:32.427Z,2.75
2023-05-25T18:58:59.539Z,3.20
2023-05-25T19:01:26.581Z,4.55
2023-05-25T19:03:55.313Z,5.93
2023-05-25T19:06:24.144Z,4.55
2023-05-25T19:08:51.521Z,3.67
2023-05-25T19:11:20.052Z,3.47
2023-05-25T19:13:47.114Z,2.88
2023-05-25T19:16:14.349Z,2.58
2023-05-25T19:18:41.824Z,3.33
2023-05-25T19:21:09.023Z,3.80
2023-05-25T19:23:36.072Z,3.55
2023-05-25T19:26:03.503Z,3.33
2023-05-25T19:28:30.736Z,2.80
2023-05-25T19:30:57.794Z,3.33
2023-05-25T19:33:24.946Z,3.20
2023-05-25T19:35:52.233Z,3.58
2023-05-25T19:38:19.428Z,3.45
2023-05-25T19:40:46.544Z,3.88
2023-05-25T19:43:13.482Z,3.00
2023-05-25T19:45:40.627Z,3.83
2023-05-25T19:48:07.712Z,3.55
2023-05-25T19:50:34.695Z,3.38
2023-05-25T19:53:01.803Z,3.35
2023-05-25T19:55:29.010Z,3.60
2023-05-25T19:57:56.047Z,3.53
2023-05-25T20:00:26.553Z,3.65
2023-05-25T20:02:54.716Z,3.65
2023-05-25T20:05:22.206Z,4.25
2023-05-25T20:07:52.038Z,3.58
2023-05-25T20:10:19.491Z,3.90
2023-05-25T20:12:46.962Z,3.65
2023-05-25T20:15:14.093Z,3.80
2023-05-25T20:17:41.256Z,3.45
2023-05-25T20:20:08.772Z,4.10
2023-05-25T20:22:36.576Z,3.50
2023-05-25T20:25:03.762Z,5.35
2023-05-25T20:27:30.908Z,3.90
2023-05-25T20:29:57.900Z,3.33
2023-05-25T20:32:25.238Z,3.67
2023-05-25T20:34:52.463Z,3.65
2023-05-25T20:37:19.424Z,3.80
2023-05-25T20:39:46.511Z,3.85
2023-05-25T20:42:14.040Z,3.75
2023-05-25T20:44:41.290Z,4.00
2023-05-25T20:47:08.493Z,4.00
2023-05-25T20:49:35.765Z,2.85
2023-05-25T20:52:03.059Z,3.50
2023-05-25T20:54:30.338Z,4.53
2023-05-25T20:56:57.592Z,3.33
2023-05-25T20:59:24.959Z,3.83
2023-05-25T21:01:52.325Z,3.72
2023-05-25T21:04:19.936Z,3.55
2023-05-25T21:06:47.328Z,3.13
2023-05-25T21:09:14.794Z,3.78
2023-05-25T21:11:41.851Z,3.22
2023-05-25T21:14:08.903Z,3.28
2023-05-25T21:16:35.930Z,3.83
2023-05-25T21:19:02.977Z,3.75
2023-05-25T21:21:34.026Z,3.72
2023-05-25T21:24:01.843Z,3.20
2023-05-25T21:26:32.574Z,3.40
2023-05-25T21:28:59.742Z,3.78
2023-05-25T21:31:27.235Z,3.38
2023-05-25T21:33:54.294Z,3.47
2023-05-25T21:36:21.373Z,3.72
2023-05-25T21:38:48.504Z,3.22
2023-05-25T21:41:15.555Z,3.67
2023-05-25T21:43:42.667Z,3.65
2023-05-25T21:46:09.778Z,2.95
2023-05-25T21:48:36.814Z,3.72
2023-05-25T21:51:04.289Z,3.03
2023-05-25T21:53:31.531Z,4.40
2023-05-25T21:55:58.654Z,3.38
2023-05-25T21:58:25.729Z,3.53
2023-05-25T22:00:53.003Z,3.88
2023-05-25T22:03:20.039Z,4.38
2023-05-25T22:05:47.273Z,4.45
2023-05-25T22:08:14.290Z,3.72
2023-05-25T22:10:41.531Z,3.45
2023-05-25T22:13:08.650Z,4.45
2023-05-25T22:15:35.589Z,4.55
2023-05-25T22:18:02.671Z,4.25
2023-05-25T22:20:29.844Z,7.97
2023-05-25T22:22:57.107Z,5.25
2023-05-25T22:25:25.235Z,3.90
2023-05-25T22:27:52.660Z,4.18
2023-05-25T22:30:20.020Z,3.33
2023-05-25T22:32:47.525Z,3.60
2023-05-25T22:35:14.688Z,3.78
2023-05-25T22:37:41.788Z,3.53
2023-05-25T22:40:09.385Z,4.20
2023-05-25T22:42:36.379Z,4.28
2023-05-25T22:45:03.740Z,4.18
2023-05-25T22:47:30.818Z,3.67
2023-05-25T22:49:57.828Z,3.85
2023-05-25T22:52:24.743Z,3.60
2023-05-25T22:54:51.651Z,4.15
2023-05-25T22:57:18.745Z,4.35
2023-05-25T22:59:45.884Z,3.92
2023-05-25T23:02:13.265Z,3.67
2023-05-25T23:04:40.828Z,3.67
2023-05-25T23:07:08.162Z,3.65
2023-05-25T23:09:35.125Z,4.28
2023-05-25T23:12:02.574Z,4.28
2023-05-25T23:14:30.806Z,4.43
2023-05-25T23:16:58.110Z,5.00
2023-05-25T23:19:25.687Z,3.67
2023-05-25T23:21:54.356Z,3.90
2023-05-25T23:24:21.489Z,4.03
2023-05-25T23:26:48.672Z,5.30
2023-05-25T23:29:16.084Z,4.53
2023-05-25T23:31:43.663Z,4.43
2023-05-25T23:34:12.088Z,4.07
2023-05-25T23:36:40.529Z,4.03
2023-05-25T23:39:08.164Z,4.05
2023-05-25T23:41:35.441Z,4.15
2023-05-25T23:44:02.670Z,3.85
2023-05-25T23:46:31.918Z,4.60
2023-05-25T23:48:59.215Z,4.35
2023-05-25T23:51:26.369Z,4.18
2023-05-25T23:53:53.535Z,4.13
2023-05-25T23:56:21.838Z,4.35
2023-05-25T23:58:48.863Z,4.43
